createdAt,value
2023-03-21T00:00:16.398Z,80.63
2023-03-21T00:00:48.553Z,80.65
2023-03-21T00:01:20.397Z,80.68
2023-03-21T00:01:53.823Z,80.64
2023-03-21T00:02:26.897Z,80.58
2023-03-21T00:02:58.768Z,80.96
2023-03-21T00:03:33.690Z,80.74
2023-03-21T00:04:05.972Z,80.80
2023-03-21T00:04:50.449Z,80.92
2023-03-21T00:05:23.284Z,80.99
2023-03-21T00:05:55.146Z,80.84
2023-03-21T00:06:26.945Z,80.67
2023-03-21T00:06:58.730Z,80.26
2023-03-21T00:07:30.442Z,80.71
2023-03-21T00:08:02.772Z,80.77
2023-03-21T00:08:35.584Z,80.70
2023-03-21T00:09:07.539Z,80.60
2023-03-21T00:09:39.261Z,80.93
2023-03-21T00:10:16.715Z,80.88
2023-03-21T00:11:03.221Z,81.06
2023-03-21T00:11:34.973Z,81.00
2023-03-21T00:12:09.828Z,80.98
2023-03-21T00:12:42.846Z,80.90
2023-03-21T00:13:16.184Z,80.92
2023-03-21T00:13:47.946Z,81.22
2023-03-21T00:14:20.545Z,81.07
2023-03-21T00:14:54.159Z,81.02
2023-03-21T00:15:30.597Z,81.10
2023-03-21T00:16:20.086Z,80.98
2023-03-21T00:17:02.344Z,80.59
2023-03-21T00:17:34.460Z,80.71
2023-03-21T00:18:11.468Z,80.78
2023-03-21T00:18:46.633Z,80.37
2023-03-21T00:19:20.958Z,80.20
2023-03-21T00:19:54.477Z,80.31
2023-03-21T00:20:26.746Z,80.25
2023-03-21T00:21:37.655Z,80.51
2023-03-21T00:22:07.633Z,80.72
2023-03-21T00:22:40.065Z,80.35
2023-03-21T00:23:12.022Z,80.35
2023-03-21T00:23:46.272Z,80.24
2023-03-21T00:24:18.615Z,80.27
2023-03-21T00:24:52.176Z,80.37
2023-03-21T00:25:23.877Z,80.35
2023-03-21T00:25:56.052Z,80.00
2023-03-21T00:26:27.816Z,80.36
2023-03-21T00:27:15.805Z,80.17
2023-03-21T00:28:07.234Z,79.68
2023-03-21T00:28:43.811Z,79.97
2023-03-21T00:29:15.628Z,80.10
2023-03-21T00:29:51.808Z,80.48
2023-03-21T00:30:24.145Z,80.70
2023-03-21T00:30:59.858Z,80.46
2023-03-21T00:31:31.751Z,80.37
2023-03-21T00:32:03.476Z,80.46
2023-03-21T00:32:39.757Z,80.40
2023-03-21T00:33:22.267Z,80.13
2023-03-21T00:33:54.594Z,80.01
2023-03-21T00:34:36.820Z,79.71
2023-03-21T00:35:51.548Z,79.92
2023-03-21T00:36:09.959Z,79.33
2023-03-21T00:36:42.078Z,78.73
2023-03-21T00:37:16.829Z,78.48
2023-03-21T00:37:48.530Z,78.16
2023-03-21T00:38:21.740Z,78.06
2023-03-21T00:38:54.630Z,78.36
2023-03-21T00:39:26.773Z,79.22
2023-03-21T00:39:58.567Z,79.17
2023-03-21T00:40:35.293Z,79.09
2023-03-21T00:41:25.789Z,79.41
2023-03-21T00:42:06.511Z,78.59
2023-03-21T00:42:38.302Z,78.81
2023-03-21T00:43:11.919Z,78.84
2023-03-21T00:43:43.703Z,78.72
2023-03-21T00:44:15.870Z,78.93
2023-03-21T00:44:47.745Z,79.06
2023-03-21T00:45:22.101Z,79.00
2023-03-21T00:45:53.944Z,78.00
2023-03-21T00:46:30.025Z,78.17
2023-03-21T00:47:07.797Z,77.50
2023-03-21T00:47:39.888Z,77.47
2023-03-21T00:48:12.362Z,77.35
2023-03-21T00:48:44.774Z,76.61
2023-03-21T00:49:16.648Z,76.42
2023-03-21T00:49:48.436Z,76.95
2023-03-21T00:50:20.232Z,75.52
2023-03-21T00:50:54.557Z,75.39
2023-03-21T00:51:27.267Z,74.56
2023-03-21T00:52:12.368Z,74.36
2023-03-21T00:52:47.661Z,73.83
2023-03-21T00:53:19.737Z,73.58
2023-03-21T00:53:52.445Z,71.99
2023-03-21T00:54:24.197Z,72.18
2023-03-21T00:54:55.997Z,70.95
2023-03-21T00:55:27.806Z,71.86
2023-03-21T00:55:59.578Z,71.02
2023-03-21T00:56:32.017Z,70.99
2023-03-21T00:57:05.480Z,70.82
2023-03-21T00:57:39.628Z,70.56
2023-03-21T00:58:11.583Z,69.65
2023-03-21T00:58:43.287Z,69.72
2023-03-21T00:59:15.035Z,71.51
2023-03-21T00:59:46.851Z,70.92
2023-03-21T01:00:20.605Z,69.92
2023-03-21T01:00:52.338Z,69.35
2023-03-21T01:01:24.237Z,69.12
2023-03-21T01:01:57.315Z,69.94
2023-03-21T01:02:29.179Z,70.60
2023-03-21T01:03:17.429Z,70.91
2023-03-21T01:04:04.310Z,70.16
2023-03-21T01:04:36.066Z,70.08
2023-03-21T01:05:09.328Z,70.05
2023-03-21T01:06:05.883Z,69.65
2023-03-21T01:06:41.685Z,70.32
2023-03-21T01:07:13.394Z,70.10
2023-03-21T01:07:45.109Z,70.16
2023-03-21T01:08:26.503Z,70.20
2023-03-21T01:09:00.068Z,70.06
2023-03-21T01:09:32.860Z,69.78
2023-03-21T01:10:04.920Z,70.10
2023-03-21T01:10:39.801Z,70.01
2023-03-21T01:11:16.451Z,70.24
2023-03-21T01:11:49.632Z,70.55
2023-03-21T01:12:21.556Z,70.19
2023-03-21T01:12:53.227Z,69.85
2023-03-21T01:13:25.641Z,70.16
2023-03-21T01:14:07.670Z,70.08
2023-03-21T01:14:46.829Z,69.73
2023-03-21T01:15:18.711Z,69.94
2023-03-21T01:15:54.292Z,70.20
2023-03-21T01:16:27.037Z,70.14
2023-03-21T01:16:58.821Z,69.87
2023-03-21T01:17:30.735Z,70.00
2023-03-21T01:18:03.209Z,69.69
2023-03-21T01:18:37.721Z,69.61
2023-03-21T01:19:24.192Z,69.53
2023-03-21T01:19:56.607Z,69.51
2023-03-21T01:20:28.906Z,69.48
2023-03-21T01:21:02.068Z,69.77
2023-03-21T01:21:34.050Z,69.34
2023-03-21T01:22:05.852Z,69.10
2023-03-21T01:22:37.776Z,69.00
2023-03-21T01:23:10.888Z,69.18
2023-03-21T01:23:43.705Z,68.88
2023-03-21T01:24:15.760Z,68.64
2023-03-21T01:24:55.053Z,68.93
2023-03-21T01:25:28.735Z,69.15
2023-03-21T01:26:00.499Z,68.93
2023-03-21T01:26:32.367Z,69.11
2023-03-21T01:27:04.165Z,69.23
2023-03-21T01:27:35.915Z,68.78
2023-03-21T01:28:08.744Z,68.93
2023-03-21T01:28:43.513Z,68.52
2023-03-21T01:29:15.376Z,68.44
2023-03-21T01:29:47.092Z,68.23
2023-03-21T01:30:21.661Z,67.91
2023-03-21T01:30:56.393Z,67.79
2023-03-21T01:31:28.123Z,67.46
2023-03-21T01:31:59.897Z,67.34
2023-03-21T01:32:31.669Z,67.38
2023-03-21T01:33:03.849Z,67.42
2023-03-21T01:33:36.277Z,67.01
2023-03-21T01:34:08.168Z,66.77
2023-03-21T01:34:39.912Z,66.59
2023-03-21T01:35:11.905Z,66.46
2023-03-21T01:35:50.467Z,66.75
2023-03-21T01:36:27.520Z,66.81
2023-03-21T01:36:59.367Z,66.33
2023-03-21T01:37:32.636Z,66.47
2023-03-21T01:38:04.426Z,66.49
2023-03-21T01:38:36.711Z,66.44
2023-03-21T01:39:08.712Z,66.79
2023-03-21T01:39:40.507Z,66.56
2023-03-21T01:40:21.619Z,66.39
2023-03-21T01:40:53.763Z,66.07
2023-03-21T01:41:51.790Z,65.95
2023-03-21T01:42:23.569Z,66.02
2023-03-21T01:42:55.470Z,66.09
2023-03-21T01:43:36.077Z,65.99
2023-03-21T01:44:14.927Z,65.79
2023-03-21T01:45:16.772Z,65.82
2023-03-21T01:46:10.363Z,65.59
2023-03-21T01:46:51.805Z,65.69
2023-03-21T01:47:29.191Z,65.49
2023-03-21T01:48:01.138Z,65.40
2023-03-21T01:48:36.670Z,65.63
2023-03-21T01:49:29.610Z,65.25
2023-03-21T01:50:04.779Z,65.69
2023-03-21T01:50:37.079Z,65.83
2023-03-21T01:51:13.490Z,65.72
2023-03-21T01:51:56.703Z,66.35
2023-03-21T01:52:39.211Z,65.86
2023-03-21T01:53:11.754Z,65.88
2023-03-21T01:53:45.318Z,66.07
2023-03-21T01:54:32.326Z,65.78
2023-03-21T01:55:12.486Z,65.68
2023-03-21T01:55:44.535Z,65.74
2023-03-21T01:56:34.558Z,65.36
2023-03-21T01:57:16.605Z,65.20
2023-03-21T01:58:04.394Z,65.53
2023-03-21T01:58:41.408Z,65.72
2023-03-21T01:59:23.923Z,65.78
2023-03-21T01:59:55.742Z,65.39
2023-03-21T02:00:29.596Z,65.50
2023-03-21T02:01:02.932Z,65.49
2023-03-21T02:01:34.924Z,65.28
2023-03-21T02:02:12.859Z,65.67
2023-03-21T02:02:58.212Z,65.06
2023-03-21T02:03:50.103Z,65.39
2023-03-21T02:04:28.212Z,65.76
2023-03-21T02:05:03.882Z,65.74
2023-03-21T02:05:42.033Z,65.79
2023-03-21T02:06:20.314Z,65.58
2023-03-21T02:06:59.210Z,65.71
2023-03-21T02:07:36.581Z,65.75
2023-03-21T02:08:08.436Z,65.74
2023-03-21T02:08:40.254Z,66.25
2023-03-21T02:09:18.825Z,66.05
2023-03-21T02:09:53.410Z,66.44
2023-03-21T02:10:27.232Z,66.12
2023-03-21T02:10:59.853Z,66.22
2023-03-21T02:11:33.034Z,66.13
2023-03-21T02:12:04.788Z,66.00
2023-03-21T02:12:36.597Z,65.88
2023-03-21T02:13:10.291Z,66.44
2023-03-21T02:13:42.151Z,66.15
2023-03-21T02:14:26.528Z,66.03
2023-03-21T02:15:00.916Z,65.83
2023-03-21T02:15:32.603Z,65.60
2023-03-21T02:16:17.139Z,65.68
2023-03-21T02:16:54.751Z,66.04
2023-03-21T02:17:50.965Z,66.04
2023-03-21T02:18:34.265Z,66.08
2023-03-21T02:19:31.993Z,66.72
2023-03-21T02:20:31.391Z,66.41
2023-03-21T02:21:28.195Z,66.72
2023-03-21T02:22:05.770Z,66.80
2023-03-21T02:23:24.786Z,67.03
2023-03-21T02:24:11.585Z,66.62
2023-03-21T02:25:22.395Z,65.94
2023-03-21T02:26:39.344Z,66.14
2023-03-21T02:27:22.006Z,65.89
2023-03-21T02:28:09.034Z,65.67
2023-03-21T02:28:47.371Z,66.38
2023-03-21T02:29:39.427Z,65.72
2023-03-21T02:30:42.641Z,66.57
2023-03-21T02:31:26.771Z,66.33
2023-03-21T02:32:37.364Z,65.98
2023-03-21T02:33:09.721Z,67.31
2023-03-21T02:34:01.500Z,66.59
2023-03-21T02:34:58.365Z,66.86
2023-03-21T02:36:14.210Z,66.38
2023-03-21T02:37:03.330Z,66.07
2023-03-21T02:37:38.461Z,66.05
2023-03-21T02:38:26.094Z,66.29
2023-03-21T02:39:36.355Z,66.12
2023-03-21T02:40:23.674Z,66.00
2023-03-21T02:41:18.022Z,66.21
2023-03-21T02:42:29.024Z,65.84
2023-03-21T02:43:22.936Z,65.83
2023-03-21T02:44:25.391Z,65.78
2023-03-21T02:45:16.730Z,65.81
2023-03-21T02:45:54.709Z,65.98
2023-03-21T02:46:44.206Z,66.11
2023-03-21T02:47:42.890Z,66.30
2023-03-21T02:48:29.515Z,66.17
2023-03-21T02:49:14.641Z,66.08
2023-03-21T02:49:55.393Z,65.90
2023-03-21T02:50:37.566Z,66.18
2023-03-21T02:51:16.159Z,66.13
2023-03-21T02:51:50.851Z,65.97
2023-03-21T02:52:38.668Z,65.88
2023-03-21T02:53:16.344Z,66.23
2023-03-21T02:54:23.650Z,66.46
2023-03-21T02:54:51.664Z,66.29
2023-03-21T02:55:29.307Z,66.59
2023-03-21T02:56:03.284Z,66.48
2023-03-21T02:56:37.058Z,66.33
2023-03-21T02:57:10.336Z,66.40
2023-03-21T02:57:45.404Z,66.44
2023-03-21T02:58:23.545Z,66.25
2023-03-21T02:58:55.400Z,66.54
2023-03-21T02:59:27.890Z,66.32
2023-03-21T03:00:10.643Z,66.03
2023-03-21T03:00:49.547Z,65.67
2023-03-21T03:01:21.378Z,65.42
2023-03-21T03:01:54.803Z,65.29
2023-03-21T03:02:28.728Z,65.27
2023-03-21T03:03:09.285Z,65.63
2023-03-21T03:03:42.778Z,65.59
2023-03-21T03:04:27.472Z,66.21
2023-03-21T03:05:00.694Z,66.24
2023-03-21T03:05:37.869Z,65.88
2023-03-21T03:06:33.464Z,65.25
2023-03-21T03:07:36.015Z,65.71
2023-03-21T03:08:37.551Z,65.99
2023-03-21T03:09:18.683Z,66.12
2023-03-21T03:10:32.227Z,65.88
2023-03-21T03:11:37.911Z,65.94
2023-03-21T03:12:31.076Z,65.55
2023-03-21T03:13:14.425Z,65.51
2023-03-21T03:13:52.125Z,65.49
2023-03-21T03:14:56.371Z,65.89
2023-03-21T03:15:55.726Z,65.45
2023-03-21T03:16:45.173Z,65.75
2023-03-21T03:17:16.846Z,65.56
2023-03-21T03:18:10.661Z,66.00
2023-03-21T03:18:54.277Z,65.60
2023-03-21T03:19:32.753Z,65.24
2023-03-21T03:20:49.166Z,65.14
2023-03-21T03:21:29.511Z,65.06
2023-03-21T03:22:13.580Z,65.37
2023-03-21T03:23:08.299Z,64.93
2023-03-21T03:23:52.695Z,65.32
2023-03-21T03:24:31.531Z,65.13
2023-03-21T03:25:21.329Z,64.89
2023-03-21T03:26:05.584Z,65.17
2023-03-21T03:26:51.706Z,65.17
2023-03-21T03:27:44.625Z,65.06
2023-03-21T03:28:23.077Z,65.19
2023-03-21T03:29:04.413Z,65.01
2023-03-21T03:29:41.830Z,65.27
2023-03-21T03:30:14.981Z,65.13
2023-03-21T03:31:01.217Z,65.03
2023-03-21T03:31:50.061Z,64.91
2023-03-21T03:32:30.478Z,64.79
2023-03-21T03:33:06.880Z,65.01
2023-03-21T03:33:43.877Z,64.95
2023-03-21T03:34:22.085Z,65.15
2023-03-21T03:34:57.037Z,64.91
2023-03-21T03:35:30.597Z,65.04
2023-03-21T03:36:06.379Z,65.31
2023-03-21T03:36:43.631Z,65.45
2023-03-21T03:37:21.771Z,65.75
2023-03-21T03:38:00.878Z,65.65
2023-03-21T03:38:35.712Z,65.64
2023-03-21T03:39:11.314Z,65.61
2023-03-21T03:40:17.208Z,65.83
2023-03-21T03:40:58.819Z,65.67
2023-03-21T03:42:00.922Z,65.84
2023-03-21T03:42:32.452Z,65.77
2023-03-21T03:43:14.788Z,66.04
2023-03-21T03:43:51.113Z,65.89
2023-03-21T03:44:23.015Z,66.10
2023-03-21T03:44:55.275Z,66.10
2023-03-21T03:45:43.833Z,66.28
2023-03-21T03:46:31.936Z,66.10
2023-03-21T03:47:22.971Z,66.27
2023-03-21T03:48:15.817Z,66.43
2023-03-21T03:49:17.621Z,66.44
2023-03-21T03:50:13.916Z,66.69
2023-03-21T03:50:58.640Z,66.60
2023-03-21T03:51:49.608Z,66.37
2023-03-21T03:52:33.132Z,66.27
2023-03-21T03:53:18.583Z,66.56
2023-03-21T03:53:58.590Z,66.27
2023-03-21T03:54:46.654Z,66.46
2023-03-21T03:55:22.276Z,66.63
2023-03-21T03:55:56.443Z,66.49
2023-03-21T03:56:29.308Z,66.45
2023-03-21T03:57:01.573Z,67.16
2023-03-21T03:57:34.126Z,66.77
2023-03-21T03:58:10.639Z,66.94
2023-03-21T03:58:51.724Z,66.95
2023-03-21T03:59:25.070Z,66.61
2023-03-21T03:59:56.876Z,67.00
2023-03-21T04:00:33.432Z,66.74
2023-03-21T04:01:07.564Z,67.03
2023-03-21T04:01:39.491Z,66.91
2023-03-21T04:02:12.551Z,66.95
2023-03-21T04:02:46.101Z,67.05
2023-03-21T04:03:19.720Z,66.90
2023-03-21T04:04:00.837Z,67.28
2023-03-21T04:04:39.133Z,67.12
2023-03-21T04:05:10.926Z,67.23
2023-03-21T04:05:46.423Z,67.02
2023-03-21T04:06:19.701Z,67.07
2023-03-21T04:06:51.824Z,67.38
2023-03-21T04:07:23.676Z,67.18
2023-03-21T04:07:55.491Z,67.42
2023-03-21T04:08:27.321Z,67.35
2023-03-21T04:09:01.585Z,67.32
2023-03-21T04:09:44.224Z,67.34
2023-03-21T04:10:17.743Z,67.74
2023-03-21T04:10:49.538Z,67.30
2023-03-21T04:11:21.641Z,67.78
2023-03-21T04:11:53.354Z,67.60
2023-03-21T04:12:25.661Z,67.67
2023-03-21T04:12:57.382Z,67.53
2023-03-21T04:13:29.158Z,67.78
2023-03-21T04:14:01.139Z,67.86
2023-03-21T04:14:44.025Z,67.67
2023-03-21T04:15:16.853Z,67.90
2023-03-21T04:15:48.705Z,67.86
2023-03-21T04:16:20.548Z,67.83
2023-03-21T04:16:52.408Z,68.08
2023-03-21T04:17:24.265Z,67.77
2023-03-21T04:17:56.548Z,67.92
2023-03-21T04:18:28.387Z,67.91
2023-03-21T04:19:00.622Z,67.60
2023-03-21T04:19:32.644Z,68.07
2023-03-21T04:20:12.141Z,68.09
2023-03-21T04:20:49.471Z,68.10
2023-03-21T04:21:22.001Z,67.83
2023-03-21T04:21:53.712Z,68.13
2023-03-21T04:22:25.922Z,68.30
2023-03-21T04:22:58.232Z,68.17
2023-03-21T04:23:30.037Z,67.86
2023-03-21T04:24:01.876Z,68.09
2023-03-21T04:24:34.015Z,68.00
2023-03-21T04:25:06.485Z,67.99
2023-03-21T04:25:44.671Z,68.30
2023-03-21T04:26:23.755Z,67.67
2023-03-21T04:26:55.528Z,68.13
2023-03-21T04:27:28.492Z,68.15
2023-03-21T04:28:00.260Z,68.10
2023-03-21T04:28:33.856Z,68.19
2023-03-21T04:29:06.531Z,68.25
2023-03-21T04:29:38.362Z,68.23
2023-03-21T04:30:12.222Z,68.33
2023-03-21T04:30:58.590Z,68.34
2023-03-21T04:31:35.284Z,68.35
2023-03-21T04:32:16.322Z,68.16
2023-03-21T04:32:56.793Z,68.08
2023-03-21T04:33:28.622Z,68.23
2023-03-21T04:34:02.692Z,68.28
2023-03-21T04:34:40.346Z,68.31
2023-03-21T04:35:12.104Z,68.54
2023-03-21T04:35:46.099Z,68.49
2023-03-21T04:36:30.651Z,68.41
2023-03-21T04:37:11.118Z,68.77
2023-03-21T04:37:42.915Z,68.61
2023-03-21T04:38:14.608Z,68.63
2023-03-21T04:38:48.604Z,68.48
2023-03-21T04:39:20.988Z,68.57
2023-03-21T04:39:52.747Z,68.60
2023-03-21T04:40:25.648Z,68.53
2023-03-21T04:40:58.414Z,68.29
2023-03-21T04:41:31.080Z,68.10
2023-03-21T04:42:02.814Z,68.30
2023-03-21T04:42:35.339Z,67.92
2023-03-21T04:43:07.267Z,68.10
2023-03-21T04:43:39.010Z,68.28
2023-03-21T04:44:12.346Z,67.94
2023-03-21T04:44:47.451Z,67.80
2023-03-21T04:45:19.246Z,67.86
2023-03-21T04:45:52.149Z,67.80
2023-03-21T04:46:24.228Z,67.93
2023-03-21T04:46:56.003Z,68.21
2023-03-21T04:47:27.903Z,67.76
2023-03-21T04:47:59.688Z,67.88
2023-03-21T04:48:31.509Z,67.57
2023-03-21T04:49:03.631Z,67.76
2023-03-21T04:49:35.838Z,67.51
2023-03-21T04:50:08.610Z,67.77
2023-03-21T04:50:40.604Z,67.76
2023-03-21T04:51:12.314Z,67.44
2023-03-21T04:51:45.539Z,67.23
2023-03-21T04:52:17.713Z,67.54
2023-03-21T04:52:49.664Z,67.17
2023-03-21T04:53:21.373Z,67.40
2023-03-21T04:53:57.490Z,67.38
2023-03-21T04:54:29.250Z,67.10
2023-03-21T04:55:02.166Z,66.99
2023-03-21T04:55:33.960Z,67.04
2023-03-21T04:56:06.807Z,66.97
2023-03-21T04:56:38.650Z,67.17
2023-03-21T04:57:10.393Z,67.12
2023-03-21T04:57:42.237Z,67.31
2023-03-21T04:58:14.100Z,67.04
2023-03-21T04:58:45.892Z,67.24
2023-03-21T04:59:19.279Z,67.10
2023-03-21T04:59:51.044Z,67.11
2023-03-21T05:00:23.719Z,67.16
2023-03-21T05:00:57.449Z,66.86
2023-03-21T05:01:31.944Z,66.87
2023-03-21T05:02:03.798Z,66.77
2023-03-21T05:02:35.776Z,66.63
2023-03-21T05:03:09.330Z,66.89
2023-03-21T05:03:41.874Z,66.89
2023-03-21T05:04:14.921Z,66.95
2023-03-21T05:04:46.782Z,66.70
2023-03-21T05:05:18.623Z,66.97
2023-03-21T05:05:50.610Z,67.00
2023-03-21T05:06:22.320Z,67.00
2023-03-21T05:06:55.017Z,67.07
2023-03-21T05:07:26.766Z,66.87
2023-03-21T05:07:58.442Z,66.95
2023-03-21T05:08:30.305Z,66.62
2023-03-21T05:09:07.095Z,66.89
2023-03-21T05:09:38.933Z,67.02
2023-03-21T05:10:12.640Z,66.83
2023-03-21T05:10:44.494Z,66.82
2023-03-21T05:11:16.256Z,67.19
2023-03-21T05:11:49.048Z,66.89
2023-03-21T05:12:20.952Z,67.01
2023-03-21T05:12:52.634Z,67.05
2023-03-21T05:13:24.485Z,67.30
2023-03-21T05:13:56.354Z,67.36
2023-03-21T05:14:28.535Z,67.39
2023-03-21T05:15:00.658Z,67.21
2023-03-21T05:15:32.503Z,67.37
2023-03-21T05:16:04.471Z,67.49
2023-03-21T05:16:38.765Z,67.25
2023-03-21T05:17:10.768Z,67.22
2023-03-21T05:17:42.805Z,67.25
2023-03-21T05:18:15.404Z,67.46
2023-03-21T05:18:51.031Z,67.17
2023-03-21T05:19:34.401Z,67.50
2023-03-21T05:20:09.299Z,67.62
2023-03-21T05:20:45.090Z,67.46
2023-03-21T05:21:18.438Z,67.31
2023-03-21T05:21:50.509Z,67.64
2023-03-21T05:22:24.358Z,67.47
2023-03-21T05:22:56.108Z,67.42
2023-03-21T05:23:31.632Z,67.58
2023-03-21T05:24:03.754Z,67.59
2023-03-21T05:24:39.284Z,67.49
2023-03-21T05:25:12.321Z,67.71
2023-03-21T05:25:44.051Z,67.39
2023-03-21T05:26:15.824Z,67.29
2023-03-21T05:26:50.668Z,67.53
2023-03-21T05:27:36.052Z,67.36
2023-03-21T05:28:08.446Z,67.59
2023-03-21T05:28:40.208Z,67.05
2023-03-21T05:29:11.958Z,66.89
2023-03-21T05:29:43.752Z,66.85
2023-03-21T05:30:17.456Z,66.95
2023-03-21T05:30:49.456Z,66.68
2023-03-21T05:31:21.812Z,66.96
2023-03-21T05:31:53.631Z,66.66
2023-03-21T05:32:25.377Z,66.72
2023-03-21T05:32:57.934Z,66.51
2023-03-21T05:33:30.139Z,66.40
2023-03-21T05:34:02.463Z,66.06
2023-03-21T05:34:34.245Z,66.01
2023-03-21T05:35:06.584Z,65.72
2023-03-21T05:35:39.200Z,65.61
2023-03-21T05:36:11.866Z,65.45
2023-03-21T05:36:43.676Z,65.55
2023-03-21T05:37:15.656Z,65.02
2023-03-21T05:37:47.484Z,64.96
2023-03-21T05:38:19.246Z,64.79
2023-03-21T05:38:51.389Z,64.95
2023-03-21T05:39:23.143Z,64.74
2023-03-21T05:39:55.021Z,64.66
2023-03-21T05:40:26.988Z,64.31
2023-03-21T05:40:58.762Z,63.95
2023-03-21T05:41:30.598Z,64.36
2023-03-21T05:42:02.307Z,63.90
2023-03-21T05:42:34.045Z,63.98
2023-03-21T05:43:05.752Z,63.75
2023-03-21T05:43:37.506Z,63.88
2023-03-21T05:44:09.531Z,63.47
2023-03-21T05:44:41.355Z,63.81
2023-03-21T05:45:13.479Z,63.42
2023-03-21T05:45:45.199Z,63.56
2023-03-21T05:46:16.969Z,63.45
2023-03-21T05:46:48.899Z,63.08
2023-03-21T05:47:20.852Z,63.43
2023-03-21T05:47:52.660Z,63.81
2023-03-21T05:48:24.466Z,63.65
2023-03-21T05:48:56.220Z,63.55
2023-03-21T05:49:27.972Z,63.87
2023-03-21T05:49:59.812Z,63.44
2023-03-21T05:50:31.583Z,63.47
2023-03-21T05:51:04.524Z,63.28
2023-03-21T05:51:36.280Z,63.37
2023-03-21T05:52:08.642Z,63.16
2023-03-21T05:52:40.988Z,62.77
2023-03-21T05:53:12.935Z,63.08
2023-03-21T05:53:44.721Z,62.70
2023-03-21T05:54:16.871Z,62.42
2023-03-21T05:54:48.772Z,62.86
2023-03-21T05:55:20.600Z,62.65
2023-03-21T05:55:52.374Z,62.35
2023-03-21T05:56:24.174Z,62.65
2023-03-21T05:56:56.016Z,62.41
2023-03-21T05:57:29.404Z,62.22
2023-03-21T05:58:01.186Z,62.61
2023-03-21T05:58:33.020Z,62.51
2023-03-21T05:59:04.767Z,62.60
2023-03-21T05:59:36.738Z,62.57
2023-03-21T06:00:09.813Z,62.09
2023-03-21T06:00:41.688Z,62.45
2023-03-21T06:01:13.806Z,62.47
2023-03-21T06:01:45.591Z,62.32
2023-03-21T06:02:17.415Z,62.29
2023-03-21T06:02:49.227Z,62.02
2023-03-21T06:03:21.119Z,62.59
2023-03-21T06:03:53.013Z,62.86
2023-03-21T06:04:25.731Z,62.89
2023-03-21T06:04:57.444Z,62.60
2023-03-21T06:05:29.365Z,62.46
2023-03-21T06:06:03.406Z,62.68
2023-03-21T06:06:35.172Z,62.60
2023-03-21T06:07:06.912Z,62.61
2023-03-21T06:07:39.127Z,62.78
2023-03-21T06:08:10.921Z,62.60
2023-03-21T06:08:42.726Z,62.66
2023-03-21T06:09:14.536Z,62.25
2023-03-21T06:09:46.250Z,61.88
2023-03-21T06:10:18.126Z,61.47
2023-03-21T06:10:49.902Z,61.43
2023-03-21T06:11:34.635Z,60.91
2023-03-21T06:12:06.632Z,60.99
2023-03-21T06:12:38.411Z,60.95
2023-03-21T06:13:10.180Z,60.76
2023-03-21T06:13:41.883Z,60.14
2023-03-21T06:14:13.611Z,60.13
2023-03-21T06:14:45.501Z,60.03
2023-03-21T06:15:17.289Z,59.78
2023-03-21T06:15:49.073Z,59.59
2023-03-21T06:16:21.045Z,59.48
2023-03-21T06:16:54.044Z,58.90
2023-03-21T06:17:25.770Z,58.67
2023-03-21T06:17:57.577Z,59.01
2023-03-21T06:18:29.306Z,58.65
2023-03-21T06:19:01.049Z,58.67
2023-03-21T06:19:32.790Z,58.17
2023-03-21T06:20:07.084Z,58.36
2023-03-21T06:20:38.834Z,58.17
2023-03-21T06:21:10.619Z,58.43
2023-03-21T06:21:42.935Z,58.39
2023-03-21T06:22:14.669Z,58.41
2023-03-21T06:22:46.482Z,58.82
2023-03-21T06:23:18.321Z,58.97
2023-03-21T06:23:54.067Z,59.05
2023-03-21T06:24:27.477Z,59.14
2023-03-21T06:24:59.501Z,59.32
2023-03-21T06:25:31.303Z,59.26
2023-03-21T06:26:03.982Z,59.26
2023-03-21T06:26:35.944Z,59.55
2023-03-21T06:27:07.648Z,59.58
2023-03-21T06:27:39.437Z,59.95
2023-03-21T06:28:11.189Z,59.99
2023-03-21T06:28:42.886Z,59.92
2023-03-21T06:29:14.706Z,59.95
2023-03-21T06:29:46.433Z,59.77
2023-03-21T06:30:18.664Z,60.41
2023-03-21T06:30:50.380Z,60.28
2023-03-21T06:31:26.647Z,60.28
2023-03-21T06:31:58.556Z,60.62
2023-03-21T06:32:30.391Z,60.56
2023-03-21T06:33:02.265Z,60.15
2023-03-21T06:33:34.089Z,60.58
2023-03-21T06:34:06.718Z,60.47
2023-03-21T06:34:39.490Z,60.59
2023-03-21T06:35:11.281Z,60.62
2023-03-21T06:35:43.012Z,60.50
2023-03-21T06:36:15.405Z,60.42
2023-03-21T06:36:47.168Z,60.08
2023-03-21T06:37:19.784Z,60.11
2023-03-21T06:37:51.809Z,59.62
2023-03-21T06:38:24.850Z,59.63
2023-03-21T06:38:56.686Z,59.61
2023-03-21T06:39:28.406Z,59.69
2023-03-21T06:40:00.170Z,59.85
2023-03-21T06:40:31.874Z,59.70
2023-03-21T06:41:07.671Z,59.81
2023-03-21T06:41:39.742Z,59.94
2023-03-21T06:42:12.289Z,59.88
2023-03-21T06:42:44.173Z,59.59
2023-03-21T06:43:16.891Z,59.69
2023-03-21T06:43:48.633Z,59.57
2023-03-21T06:44:22.155Z,59.76
2023-03-21T06:44:53.892Z,59.23
2023-03-21T06:45:25.747Z,59.46
2023-03-21T06:45:57.888Z,59.52
2023-03-21T06:46:29.772Z,59.46
2023-03-21T06:47:01.869Z,59.38
2023-03-21T06:47:33.672Z,59.58
2023-03-21T06:48:08.723Z,59.69
2023-03-21T06:48:44.557Z,59.83
2023-03-21T06:49:16.511Z,59.85
2023-03-21T06:49:48.280Z,60.04
2023-03-21T06:50:20.076Z,59.68
2023-03-21T06:50:53.255Z,59.68
2023-03-21T06:51:24.994Z,59.62
2023-03-21T06:51:56.785Z,59.68
2023-03-21T06:52:28.474Z,59.57
2023-03-21T06:53:00.739Z,59.67
2023-03-21T06:53:35.073Z,59.67
2023-03-21T06:54:07.855Z,59.76
2023-03-21T06:54:39.714Z,60.16
2023-03-21T06:55:11.505Z,60.04
2023-03-21T06:55:43.247Z,59.97
2023-03-21T06:56:16.070Z,59.97
2023-03-21T06:56:47.929Z,60.29
2023-03-21T06:57:21.945Z,60.41
2023-03-21T06:57:53.926Z,60.28
2023-03-21T06:58:25.732Z,60.30
2023-03-21T06:58:57.661Z,60.60
2023-03-21T06:59:30.029Z,60.52
2023-03-21T07:00:01.897Z,60.51
2023-03-21T07:00:34.168Z,60.44
2023-03-21T07:01:07.106Z,59.96
2023-03-21T07:01:39.282Z,60.05
2023-03-21T07:02:12.242Z,60.04
2023-03-21T07:02:44.097Z,59.68
2023-03-21T07:03:16.984Z,59.48
2023-03-21T07:03:48.785Z,59.39
2023-03-21T07:04:20.662Z,59.55
2023-03-21T07:04:52.748Z,59.81
2023-03-21T07:05:24.996Z,59.57
2023-03-21T07:05:56.723Z,59.71
2023-03-21T07:06:28.647Z,59.49
2023-03-21T07:07:00.383Z,59.26
2023-03-21T07:07:32.169Z,59.06
2023-03-21T07:08:04.436Z,59.14
2023-03-21T07:08:37.232Z,59.52
2023-03-21T07:09:09.067Z,59.02
2023-03-21T07:09:41.236Z,58.36
2023-03-21T07:10:13.105Z,58.36
2023-03-21T07:10:46.953Z,57.75
2023-03-21T07:11:19.986Z,57.43
2023-03-21T07:11:53.683Z,57.50
2023-03-21T07:12:25.478Z,57.36
2023-03-21T07:12:59.197Z,57.23
2023-03-21T07:13:31.923Z,56.85
2023-03-21T07:14:04.655Z,56.61
2023-03-21T07:14:36.428Z,56.59
2023-03-21T07:15:09.297Z,56.20
2023-03-21T07:15:41.480Z,55.74
2023-03-21T07:16:13.224Z,55.16
2023-03-21T07:16:45.279Z,54.56
2023-03-21T07:17:17.342Z,54.04
2023-03-21T07:17:49.340Z,53.62
2023-03-21T07:18:21.397Z,53.46
2023-03-21T07:18:53.550Z,52.92
2023-03-21T07:19:26.370Z,53.01
2023-03-21T07:19:58.224Z,52.13
2023-03-21T07:20:31.050Z,52.21
2023-03-21T07:21:03.563Z,52.15
2023-03-21T07:21:35.403Z,52.04
2023-03-21T07:22:07.345Z,52.00
2023-03-21T07:22:39.832Z,51.73
2023-03-21T07:23:11.835Z,51.46
2023-03-21T07:23:43.737Z,51.13
2023-03-21T07:24:15.544Z,50.87
2023-03-21T07:25:02.341Z,50.25
2023-03-21T07:25:36.229Z,50.51
2023-03-21T07:26:08.667Z,50.56
2023-03-21T07:26:40.462Z,50.11
2023-03-21T07:27:12.270Z,49.83
2023-03-21T07:27:44.081Z,50.14
2023-03-21T07:28:16.979Z,50.05
2023-03-21T07:28:48.771Z,49.78
2023-03-21T07:29:22.720Z,49.29
2023-03-21T07:29:54.451Z,49.48
2023-03-21T07:30:27.187Z,50.06
2023-03-21T07:31:02.646Z,49.59
2023-03-21T07:31:35.774Z,49.07
2023-03-21T07:32:07.895Z,48.73
2023-03-21T07:32:40.098Z,48.60
2023-03-21T07:33:12.919Z,48.56
2023-03-21T07:33:44.609Z,48.18
2023-03-21T07:34:17.830Z,48.40
2023-03-21T07:34:49.534Z,47.98
2023-03-21T07:35:21.698Z,48.18
2023-03-21T07:35:55.936Z,47.91
2023-03-21T07:36:28.289Z,47.69
2023-03-21T07:37:00.545Z,47.25
2023-03-21T07:37:32.297Z,47.10
2023-03-21T07:38:07.099Z,47.10
2023-03-21T07:38:39.613Z,47.43
2023-03-21T07:39:11.320Z,47.27
2023-03-21T07:39:43.454Z,47.04
2023-03-21T07:40:15.358Z,46.29
2023-03-21T07:40:48.550Z,46.76
2023-03-21T07:41:20.550Z,46.61
2023-03-21T07:41:52.453Z,46.60
2023-03-21T07:42:24.230Z,45.98